Thunder radar more information blitzortung!


Löydät sääaseman tiedot myös:

European Weather Network

Finland Weather Exchange

Weather Underground

AWEKAS



Weather Underground säähistoriasivu

Päivittäin yhteenveto Helmikuu 19, 2018 Yksiköt:  Metriset    Englantilaiset   Molemmat
« Edellinen Päivä
Seuraava Päivä »
Päivittäin Viikoittain Kuukausittain Vuosittain Mukautettu
  Tämänhetkinen: Korkea: Matala: Keskiarvo:
Lämpötila: -23.7 °C -17.8 °C -27.7 °C -25 °C
Kastepiste: -24.4 °C -17.8 °C -28.6 °C -25.8 °C
Kosteus: 90 % Humidity % 84 % 88 %
Tuulen nopeus: 0 km/h 0 km/h 0 km/h 0 km/h
Tuulenpuuska: 0 km/h 0 km/h - -
Tuuli:Calm - - North
Ilmanpaine: 34831.8 hPa 0 hPa 34682.8 hPa -
Sade: 0 mm      
Historical Graphs
 
 
Taulukkotiedot Helmikuu 19, 2018
Aika Lämpötila Kastepiste Ilmanpaine Tuuli Tuulen nopeus Tuulenpuuska Kosteus Sademäärä (tunneittain)
-17.8 °C -17.8 °C 0 hPa Calm     Humidity % 0 mm
00:00 -23.9 °C -24.6 °C 34682.8 hPa Calm     91 % 0 mm
00:15 -24.1 °C -24.8 °C 34682.8 hPa Calm     91 % 0 mm
00:30 -24.2 °C -24.8 °C 34682.8 hPa Calm     91 % 0 mm
00:45 -24.3 °C -24.9 °C 34693 hPa Calm     91 % 0 mm
01:00 -24.4 °C -25.1 °C 34693 hPa Calm     91 % 0 mm
01:15 -24.4 °C -25.1 °C 34703.1 hPa Calm     91 % 0 mm
01:30 -24.6 °C -25.3 °C 34703.1 hPa Calm     90 % 0 mm
01:45 -24.7 °C -25.3 °C 34703.1 hPa Calm     91 % 0 mm
02:00 -24.6 °C -25.2 °C 34703.1 hPa Calm     91 % 0 mm
02:15 -24.6 °C -25.2 °C 34716.7 hPa Calm     91 % 0 mm
02:30 -24.6 °C -25.3 °C 34703.1 hPa Calm     91 % 0 mm
02:45 -24.8 °C -25.5 °C 34716.7 hPa Calm     90 % 0 mm
03:00 -24.9 °C -25.7 °C 34703.1 hPa Calm     90 % 0 mm
03:15 -25.1 °C -25.7 °C 34703.1 hPa Calm     90 % 0 mm
03:30 -25.3 °C -26.2 °C 34703.1 hPa Calm     88 % 0 mm
03:45 -25.6 °C -26.5 °C 34703.1 hPa Calm     88 % 0 mm
04:00 -25.9 °C -26.8 °C 34703.1 hPa Calm     88 % 0 mm
04:15 -26.2 °C -27 °C 34703.1 hPa Calm     88 % 0 mm
04:30 -26.3 °C -27.1 °C 34716.7 hPa Calm     89 % 0 mm
04:45 -26.3 °C -27.1 °C 34716.7 hPa Calm     89 % 0 mm
05:00 -26.4 °C -27.2 °C 34716.7 hPa Calm     89 % 0 mm
05:15 -26.5 °C -27.3 °C 34716.7 hPa Calm     89 % 0 mm
05:30 -26.6 °C -27.3 °C 34716.7 hPa Calm     89 % 0 mm
05:45 -26.7 °C -27.4 °C 34716.7 hPa Calm     89 % 0 mm
06:00 -26.8 °C -27.7 °C 34726.8 hPa Calm     88 % 0 mm
06:15 -27 °C -27.8 °C 34726.8 hPa Calm     89 % 0 mm
06:30 -27.1 °C -27.9 °C 34726.8 hPa Calm     89 % 0 mm
06:45 -27.3 °C -28.1 °C 34726.8 hPa Calm     88 % 0 mm
07:00 -27.4 °C -28.3 °C 34740.4 hPa Calm     88 % 0 mm
07:15 -27.5 °C -28.3 °C 34740.4 hPa Calm     88 % 0 mm
07:30 -27.6 °C -28.4 °C 34740.4 hPa Calm     88 % 0 mm
07:45 -27.7 °C -28.5 °C 34740.4 hPa Calm     88 % 0 mm
08:00 -27.7 °C -28.5 °C 34740.4 hPa Calm     88 % 0 mm
08:15 -27.7 °C -28.6 °C 34740.4 hPa Calm     88 % 0 mm
08:30 -27.7 °C -28.6 °C 34750.5 hPa Calm     88 % 0 mm
08:45 -27.7 °C -28.6 °C 34750.5 hPa Calm     88 % 0 mm
09:00 -27.7 °C -28.5 °C 34750.5 hPa Calm     88 % 0 mm
09:15 -27.6 °C -28.4 °C 34760.7 hPa Calm     88 % 0 mm
09:30 -27.4 °C -28.2 °C 34760.7 hPa Calm     89 % 0 mm
09:45 -27.3 °C -28.1 °C 34774.2 hPa Calm     89 % 0 mm
10:00 -27.2 °C -28 °C 34774.2 hPa Calm     89 % 0 mm
10:15 -27.2 °C -28.1 °C 34784.4 hPa Calm     88 % 0 mm
10:30 -27 °C -27.7 °C 34784.4 hPa Calm     89 % 0 mm
10:45 -26.6 °C -27.2 °C 34784.4 hPa Calm     90 % 0 mm
11:00 -26 °C -26.6 °C 34797.9 hPa Calm     92 % 0 mm
11:15 -25.3 °C -25.8 °C 34797.9 hPa Calm     93 % 0 mm
11:30 -24.7 °C -25.2 °C 34797.9 hPa Calm     93 % 0 mm
11:45 -24.3 °C -24.9 °C 34797.9 hPa Calm     92 % 0 mm
12:00 -24.1 °C -24.8 °C 34797.9 hPa Calm     91 % 0 mm
12:15 -24 °C -24.6 °C 34797.9 hPa Calm     91 % 0 mm
12:30 -23.8 °C -24.6 °C 34808.1 hPa Calm     90 % 0 mm
12:45 -23.7 °C -24.4 °C 34808.1 hPa Calm     90 % 0 mm
13:00 -23.7 °C -24.4 °C 34808.1 hPa Calm     90 % 0 mm
13:15 -23.7 °C -24.4 °C 34808.1 hPa Calm     90 % 0 mm
13:30 -23.5 °C -24.3 °C 34808.1 hPa Calm     90 % 0 mm
13:45 -23.4 °C -24.1 °C 34808.1 hPa Calm     90 % 0 mm
14:00 -23.2 °C -23.9 °C 34808.1 hPa Calm     90 % 0 mm
14:15 -23.1 °C -24.1 °C 34808.1 hPa Calm     87 % 0 mm
14:30 -23.1 °C -24 °C 34818.2 hPa Calm     88 % 0 mm
14:45 -22.9 °C -23.8 °C 34808.1 hPa Calm     88 % 0 mm
15:00 -22.6 °C -23.6 °C 34808.1 hPa Calm     87 % 0 mm
15:15 -22.3 °C -23.3 °C 34818.2 hPa Calm     86 % 0 mm
15:30 -22.1 °C -23.4 °C 34818.2 hPa Calm     84 % 0 mm
15:45 -22.2 °C -23.4 °C 34818.2 hPa Calm     84 % 0 mm
16:00 -22.3 °C -23.4 °C 34818.2 hPa Calm     85 % 0 mm
16:15 -22.4 °C -23.5 °C 34818.2 hPa Calm     86 % 0 mm
16:30 -22.6 °C -23.7 °C 34818.2 hPa Calm     86 % 0 mm
16:45 -22.8 °C -23.8 °C 34831.8 hPa Calm     86 % 0 mm
17:00 -23 °C -24 °C 34831.8 hPa Calm     87 % 0 mm
17:15 -23.2 °C -24.1 °C 34831.8 hPa Calm     88 % 0 mm
17:30 -23.4 °C -24.2 °C 34831.8 hPa Calm     89 % 0 mm
17:45 -23.6 °C -24.3 °C 34831.8 hPa Calm     90 % 0 mm
18:00 -23.7 °C -24.4 °C 34831.8 hPa Calm     90 % 0 mm
Esan sääasema
Terveisin Weather Underground - 2.75 mb

Alkuperäinen skripti  Jim McMurry - jmcmurry@mwt.net Sovitettu myös templatelle  Wim van der Kuil - Leuven-Template.eu

Laitteet joita käytämme:

Sääasema
Davis VP2

Sääasemaohjelma
Cumulus

Sääaseman tietokone
Asus EeePC

Palveluntarjoaja
Suncomet

Davis VP2

Cumulus

Asus EeePC

Suncomet